sensor_id;sensor_type;location;lat;lon;timestamp;pressure;altitude;pressure_sealevel;temperature
25514;BMP180;48128;54.242;10.280;2023-07-09T00:00:17;101691.00;;;14.30
25514;BMP180;48128;54.242;10.280;2023-07-09T00:02:45;101692.00;;;14.30
25514;BMP180;48128;54.242;10.280;2023-07-09T00:05:14;101698.00;;;14.30
25514;BMP180;48128;54.242;10.280;2023-07-09T00:07:41;101699.00;;;14.30
25514;BMP180;48128;54.242;10.280;2023-07-09T00:10:19;101699.00;;;14.40
25514;BMP180;48128;54.242;10.280;2023-07-09T00:12:47;101686.00;;;14.30
25514;BMP180;48128;54.242;10.280;2023-07-09T00:15:15;101688.00;;;14.30
25514;BMP180;48128;54.242;10.280;2023-07-09T00:17:42;101689.00;;;14.20
25514;BMP180;48128;54.242;10.280;2023-07-09T00:20:15;101685.00;;;14.20
25514;BMP180;48128;54.242;10.280;2023-07-09T00:22:42;101702.00;;;14.20
25514;BMP180;48128;54.242;10.280;2023-07-09T00:25:14;101700.00;;;14.10
25514;BMP180;48128;54.242;10.280;2023-07-09T00:27:43;101712.00;;;14.10
25514;BMP180;48128;54.242;10.280;2023-07-09T00:30:17;101716.00;;;14.10
25514;BMP180;48128;54.242;10.280;2023-07-09T00:32:44;101717.00;;;14.10
25514;BMP180;48128;54.242;10.280;2023-07-09T00:35:14;101723.00;;;14.10
25514;BMP180;48128;54.242;10.280;2023-07-09T00:37:43;101721.00;;;14.10
25514;BMP180;48128;54.242;10.280;2023-07-09T00:40:17;101730.00;;;14.10
25514;BMP180;48128;54.242;10.280;2023-07-09T00:42:46;101732.00;;;14.10
25514;BMP180;48128;54.242;10.280;2023-07-09T00:45:23;101730.00;;;14.00
25514;BMP180;48128;54.242;10.280;2023-07-09T00:48:02;101735.00;;;14.00
25514;BMP180;48128;54.242;10.280;2023-07-09T00:50:41;101741.00;;;14.00
25514;BMP180;48128;54.242;10.280;2023-07-09T00:55:49;101728.00;;;14.10
25514;BMP180;48128;54.242;10.280;2023-07-09T00:58:17;101725.00;;;14.00
25514;BMP180;48128;54.242;10.280;2023-07-09T01:00:50;101726.00;;;14.00
25514;BMP180;48128;54.242;10.280;2023-07-09T01:03:39;101727.00;;;13.90
25514;BMP180;48128;54.242;10.280;2023-07-09T01:06:09;101727.00;;;13.90
25514;BMP180;48128;54.242;10.280;2023-07-09T01:08:38;101723.00;;;13.90
25514;BMP180;48128;54.242;10.280;2023-07-09T01:11:18;101734.00;;;13.90
25514;BMP180;48128;54.242;10.280;2023-07-09T01:13:49;101720.00;;;13.80
25514;BMP180;48128;54.242;10.280;2023-07-09T01:16:18;101729.00;;;13.80
25514;BMP180;48128;54.242;10.280;2023-07-09T01:18:46;101730.00;;;13.80
25514;BMP180;48128;54.242;10.280;2023-07-09T01:21:12;101731.00;;;13.80
25514;BMP180;48128;54.242;10.280;2023-07-09T01:23:44;101739.00;;;13.80
25514;BMP180;48128;54.242;10.280;2023-07-09T01:26:16;101745.00;;;13.80
25514;BMP180;48128;54.242;10.280;2023-07-09T01:28:43;101730.00;;;13.80
25514;BMP180;48128;54.242;10.280;2023-07-09T01:31:11;101736.00;;;13.80
25514;BMP180;48128;54.242;10.280;2023-07-09T01:33:39;101741.00;;;13.70
25514;BMP180;48128;54.242;10.280;2023-07-09T01:36:08;101743.00;;;13.70
25514;BMP180;48128;54.242;10.280;2023-07-09T01:38:35;101741.00;;;13.60
25514;BMP180;48128;54.242;10.280;2023-07-09T01:41:02;101740.00;;;13.60
25514;BMP180;48128;54.242;10.280;2023-07-09T01:43:29;101743.00;;;13.60
25514;BMP180;48128;54.242;10.280;2023-07-09T01:45:56;101743.00;;;13.60
25514;BMP180;48128;54.242;10.280;2023-07-09T01:48:25;101734.00;;;13.50
25514;BMP180;48128;54.242;10.280;2023-07-09T01:50:53;101734.00;;;13.50
25514;BMP180;48128;54.242;10.280;2023-07-09T01:53:24;101743.00;;;13.50
25514;BMP180;48128;54.242;10.280;2023-07-09T01:55:52;101746.00;;;13.50
25514;BMP180;48128;54.242;10.280;2023-07-09T01:58:21;101741.00;;;13.50
25514;BMP180;48128;54.242;10.280;2023-07-09T02:00:51;101727.00;;;13.50
25514;BMP180;48128;54.242;10.280;2023-07-09T02:03:18;101732.00;;;13.40
25514;BMP180;48128;54.242;10.280;2023-07-09T02:05:45;101735.00;;;13.40
25514;BMP180;48128;54.242;10.280;2023-07-09T02:08:12;101732.00;;;13.40
25514;BMP180;48128;54.242;10.280;2023-07-09T02:10:39;101727.00;;;13.30
25514;BMP180;48128;54.242;10.280;2023-07-09T02:13:06;101725.00;;;13.30
25514;BMP180;48128;54.242;10.280;2023-07-09T02:15:33;101719.00;;;13.30
25514;BMP180;48128;54.242;10.280;2023-07-09T02:18:00;101736.00;;;13.20
25514;BMP180;48128;54.242;10.280;2023-07-09T02:20:28;101737.00;;;13.20
25514;BMP180;48128;54.242;10.280;2023-07-09T02:22:55;101740.00;;;13.20
25514;BMP180;48128;54.242;10.280;2023-07-09T02:25:22;101733.00;;;13.10
25514;BMP180;48128;54.242;10.280;2023-07-09T02:27:49;101729.00;;;13.10
25514;BMP180;48128;54.242;10.280;2023-07-09T02:30:16;101724.00;;;13.10
25514;BMP180;48128;54.242;10.280;2023-07-09T02:32:43;101723.00;;;13.10
25514;BMP180;48128;54.242;10.280;2023-07-09T02:35:09;101719.00;;;13.10
25514;BMP180;48128;54.242;10.280;2023-07-09T02:37:37;101730.00;;;13.10
25514;BMP180;48128;54.242;10.280;2023-07-09T02:40:05;101731.00;;;13.10
25514;BMP180;48128;54.242;10.280;2023-07-09T02:42:32;101731.00;;;13.10
25514;BMP180;48128;54.242;10.280;2023-07-09T02:44:59;101712.00;;;13.10
25514;BMP180;48128;54.242;10.280;2023-07-09T02:47:26;101732.00;;;13.00
25514;BMP180;48128;54.242;10.280;2023-07-09T02:49:53;101725.00;;;13.10
25514;BMP180;48128;54.242;10.280;2023-07-09T02:52:19;101708.00;;;13.10
25514;BMP180;48128;54.242;10.280;2023-07-09T02:54:46;101713.00;;;13.10
25514;BMP180;48128;54.242;10.280;2023-07-09T02:57:13;101720.00;;;13.00
25514;BMP180;48128;54.242;10.280;2023-07-09T02:59:40;101716.00;;;13.00
25514;BMP180;48128;54.242;10.280;2023-07-09T03:02:07;101715.00;;;13.00
25514;BMP180;48128;54.242;10.280;2023-07-09T03:04:34;101721.00;;;13.00
25514;BMP180;48128;54.242;10.280;2023-07-09T03:07:01;101722.00;;;13.00
25514;BMP180;48128;54.242;10.280;2023-07-09T03:09:28;101722.00;;;13.00
25514;BMP180;48128;54.242;10.280;2023-07-09T03:11:55;101740.00;;;13.00
25514;BMP180;48128;54.242;10.280;2023-07-09T03:14:22;101745.00;;;13.00
25514;BMP180;48128;54.242;10.280;2023-07-09T03:16:49;101732.00;;;13.00
25514;BMP180;48128;54.242;10.280;2023-07-09T03:19:16;101733.00;;;13.00
25514;BMP180;48128;54.242;10.280;2023-07-09T03:21:43;101732.00;;;13.00
25514;BMP180;48128;54.242;10.280;2023-07-09T03:24:10;101729.00;;;13.00
25514;BMP180;48128;54.242;10.280;2023-07-09T03:26:37;101746.00;;;13.10
25514;BMP180;48128;54.242;10.280;2023-07-09T03:29:03;101737.00;;;13.10
25514;BMP180;48128;54.242;10.280;2023-07-09T03:31:30;101749.00;;;13.10
25514;BMP180;48128;54.242;10.280;2023-07-09T03:34:01;101747.00;;;13.10
25514;BMP180;48128;54.242;10.280;2023-07-09T03:36:28;101752.00;;;13.10
25514;BMP180;48128;54.242;10.280;2023-07-09T03:38:55;101749.00;;;13.20
25514;BMP180;48128;54.242;10.280;2023-07-09T03:41:22;101735.00;;;13.20
25514;BMP180;48128;54.242;10.280;2023-07-09T03:43:49;101737.00;;;13.20
25514;BMP180;48128;54.242;10.280;2023-07-09T03:46:17;101742.00;;;13.20
25514;BMP180;48128;54.242;10.280;2023-07-09T03:48:44;101734.00;;;13.20
25514;BMP180;48128;54.242;10.280;2023-07-09T03:51:11;101732.00;;;13.20
25514;BMP180;48128;54.242;10.280;2023-07-09T03:53:37;101741.00;;;13.30
25514;BMP180;48128;54.242;10.280;2023-07-09T03:56:04;101742.00;;;13.30
25514;BMP180;48128;54.242;10.280;2023-07-09T03:58:31;101734.00;;;13.30
25514;BMP180;48128;54.242;10.280;2023-07-09T04:00:58;101740.00;;;13.30
25514;BMP180;48128;54.242;10.280;2023-07-09T04:03:25;101730.00;;;13.30
25514;BMP180;48128;54.242;10.280;2023-07-09T04:05:52;101736.00;;;13.40
25514;BMP180;48128;54.242;10.280;2023-07-09T04:08:19;101734.00;;;13.40
25514;BMP180;48128;54.242;10.280;2023-07-09T04:10:46;101731.00;;;13.40
25514;BMP180;48128;54.242;10.280;2023-07-09T04:13:13;101729.00;;;13.50
25514;BMP180;48128;54.242;10.280;2023-07-09T04:15:40;101726.00;;;13.50
25514;BMP180;48128;54.242;10.280;2023-07-09T04:18:07;101734.00;;;13.60
25514;BMP180;48128;54.242;10.280;2023-07-09T04:20:34;101734.00;;;13.70
25514;BMP180;48128;54.242;10.280;2023-07-09T04:23:01;101734.00;;;13.70
25514;BMP180;48128;54.242;10.280;2023-07-09T04:25:28;101738.00;;;13.80
25514;BMP180;48128;54.242;10.280;2023-07-09T04:27:56;101730.00;;;13.80
25514;BMP180;48128;54.242;10.280;2023-07-09T04:30:23;101732.00;;;13.90
25514;BMP180;48128;54.242;10.280;2023-07-09T04:32:50;101735.00;;;13.90
25514;BMP180;48128;54.242;10.280;2023-07-09T04:35:17;101730.00;;;14.00
25514;BMP180;48128;54.242;10.280;2023-07-09T04:37:44;101729.00;;;14.10
25514;BMP180;48128;54.242;10.280;2023-07-09T04:40:12;101732.00;;;14.20
25514;BMP180;48128;54.242;10.280;2023-07-09T04:42:39;101730.00;;;14.30
25514;BMP180;48128;54.242;10.280;2023-07-09T04:45:08;101725.00;;;14.30
25514;BMP180;48128;54.242;10.280;2023-07-09T04:47:35;101727.00;;;14.40
25514;BMP180;48128;54.242;10.280;2023-07-09T04:50:04;101738.00;;;14.50
25514;BMP180;48128;54.242;10.280;2023-07-09T04:52:31;101737.00;;;14.60
25514;BMP180;48128;54.242;10.280;2023-07-09T04:54:58;101731.00;;;14.60
25514;BMP180;48128;54.242;10.280;2023-07-09T04:57:26;101728.00;;;14.70
25514;BMP180;48128;54.242;10.280;2023-07-09T04:59:53;101729.00;;;14.80
25514;BMP180;48128;54.242;10.280;2023-07-09T05:02:22;101732.00;;;14.90
25514;BMP180;48128;54.242;10.280;2023-07-09T05:04:49;101727.00;;;15.00
25514;BMP180;48128;54.242;10.280;2023-07-09T05:07:16;101722.00;;;15.10
25514;BMP180;48128;54.242;10.280;2023-07-09T05:09:43;101725.00;;;15.10
25514;BMP180;48128;54.242;10.280;2023-07-09T05:12:10;101731.00;;;15.20
25514;BMP180;48128;54.242;10.280;2023-07-09T05:14:37;101726.00;;;15.30
25514;BMP180;48128;54.242;10.280;2023-07-09T05:17:05;101723.00;;;15.30
25514;BMP180;48128;54.242;10.280;2023-07-09T05:19:32;101731.00;;;15.40
25514;BMP180;48128;54.242;10.280;2023-07-09T05:21:59;101739.00;;;15.40
25514;BMP180;48128;54.242;10.280;2023-07-09T05:24:26;101741.00;;;15.50
25514;BMP180;48128;54.242;10.280;2023-07-09T05:26:55;101740.00;;;15.50
25514;BMP180;48128;54.242;10.280;2023-07-09T05:29:22;101734.00;;;15.60
25514;BMP180;48128;54.242;10.280;2023-07-09T05:31:49;101739.00;;;15.60
25514;BMP180;48128;54.242;10.280;2023-07-09T05:34:16;101736.00;;;15.70
25514;BMP180;48128;54.242;10.280;2023-07-09T05:36:43;101741.00;;;15.70
25514;BMP180;48128;54.242;10.280;2023-07-09T05:39:11;101739.00;;;15.80
25514;BMP180;48128;54.242;10.280;2023-07-09T05:41:38;101752.00;;;15.80
25514;BMP180;48128;54.242;10.280;2023-07-09T05:44:05;101752.00;;;15.90
25514;BMP180;48128;54.242;10.280;2023-07-09T05:46:36;101760.00;;;16.00
25514;BMP180;48128;54.242;10.280;2023-07-09T05:49:05;101779.00;;;16.00
25514;BMP180;48128;54.242;10.280;2023-07-09T05:51:32;101776.00;;;16.10
25514;BMP180;48128;54.242;10.280;2023-07-09T05:53:59;101777.00;;;16.10
25514;BMP180;48128;54.242;10.280;2023-07-09T05:56:26;101760.00;;;16.20
25514;BMP180;48128;54.242;10.280;2023-07-09T05:58:53;101766.00;;;16.30
25514;BMP180;48128;54.242;10.280;2023-07-09T06:01:20;101762.00;;;16.30
25514;BMP180;48128;54.242;10.280;2023-07-09T06:03:47;101755.00;;;16.30
25514;BMP180;48128;54.242;10.280;2023-07-09T06:06:15;101755.00;;;16.40
25514;BMP180;48128;54.242;10.280;2023-07-09T06:08:43;101758.00;;;16.40
25514;BMP180;48128;54.242;10.280;2023-07-09T06:11:10;101753.00;;;16.40
25514;BMP180;48128;54.242;10.280;2023-07-09T06:13:37;101759.00;;;16.50
25514;BMP180;48128;54.242;10.280;2023-07-09T06:16:04;101766.00;;;16.60
25514;BMP180;48128;54.242;10.280;2023-07-09T06:18:31;101764.00;;;16.70
25514;BMP180;48128;54.242;10.280;2023-07-09T06:20:59;101761.00;;;16.80
25514;BMP180;48128;54.242;10.280;2023-07-09T06:23:27;101773.00;;;16.80
25514;BMP180;48128;54.242;10.280;2023-07-09T06:25:54;101787.00;;;17.00
25514;BMP180;48128;54.242;10.280;2023-07-09T06:28:23;101789.00;;;17.10
25514;BMP180;48128;54.242;10.280;2023-07-09T06:30:51;101812.00;;;17.30
25514;BMP180;48128;54.242;10.280;2023-07-09T06:33:18;101794.00;;;17.50
25514;BMP180;48128;54.242;10.280;2023-07-09T06:35:49;101781.00;;;17.60
25514;BMP180;48128;54.242;10.280;2023-07-09T06:38:17;101782.00;;;17.70
25514;BMP180;48128;54.242;10.280;2023-07-09T06:40:45;101773.00;;;17.70
25514;BMP180;48128;54.242;10.280;2023-07-09T06:43:12;101773.00;;;17.80
25514;BMP180;48128;54.242;10.280;2023-07-09T06:45:39;101791.00;;;18.00
25514;BMP180;48128;54.242;10.280;2023-07-09T06:48:14;101791.00;;;18.20
25514;BMP180;48128;54.242;10.280;2023-07-09T06:50:41;101804.00;;;18.30
25514;BMP180;48128;54.242;10.280;2023-07-09T06:53:08;101790.00;;;18.60
25514;BMP180;48128;54.242;10.280;2023-07-09T06:55:36;101780.00;;;18.70
25514;BMP180;48128;54.242;10.280;2023-07-09T06:58:03;101791.00;;;18.80
25514;BMP180;48128;54.242;10.280;2023-07-09T07:00:29;101804.00;;;19.00
25514;BMP180;48128;54.242;10.280;2023-07-09T07:02:56;101812.00;;;19.10
25514;BMP180;48128;54.242;10.280;2023-07-09T07:05:24;101798.00;;;19.30
25514;BMP180;48128;54.242;10.280;2023-07-09T07:07:50;101811.00;;;19.40
25514;BMP180;48128;54.242;10.280;2023-07-09T07:10:17;101810.00;;;19.50
25514;BMP180;48128;54.242;10.280;2023-07-09T07:12:48;101820.00;;;19.70
25514;BMP180;48128;54.242;10.280;2023-07-09T07:15:16;101809.00;;;19.80
25514;BMP180;48128;54.242;10.280;2023-07-09T07:17:43;101794.00;;;20.00
25514;BMP180;48128;54.242;10.280;2023-07-09T07:20:11;101823.00;;;20.10
25514;BMP180;48128;54.242;10.280;2023-07-09T07:22:39;101801.00;;;20.20
25514;BMP180;48128;54.242;10.280;2023-07-09T07:25:10;101823.00;;;20.40
25514;BMP180;48128;54.242;10.280;2023-07-09T07:27:37;101807.00;;;20.60
25514;BMP180;48128;54.242;10.280;2023-07-09T07:30:05;101823.00;;;20.70
25514;BMP180;48128;54.242;10.280;2023-07-09T07:32:37;101824.00;;;21.00
25514;BMP180;48128;54.242;10.280;2023-07-09T07:35:05;101814.00;;;21.20
25514;BMP180;48128;54.242;10.280;2023-07-09T07:37:33;101813.00;;;21.40
25514;BMP180;48128;54.242;10.280;2023-07-09T07:40:00;101816.00;;;21.50
25514;BMP180;48128;54.242;10.280;2023-07-09T07:42:27;101814.00;;;21.60
25514;BMP180;48128;54.242;10.280;2023-07-09T07:44:54;101827.00;;;21.80
25514;BMP180;48128;54.242;10.280;2023-07-09T07:47:21;101835.00;;;21.90
25514;BMP180;48128;54.242;10.280;2023-07-09T07:49:48;101817.00;;;22.00
25514;BMP180;48128;54.242;10.280;2023-07-09T07:52:15;101832.00;;;22.20
25514;BMP180;48128;54.242;10.280;2023-07-09T07:54:42;101832.00;;;22.30
25514;BMP180;48128;54.242;10.280;2023-07-09T07:57:09;101834.00;;;22.50
25514;BMP180;48128;54.242;10.280;2023-07-09T07:59:37;101805.00;;;22.50
25514;BMP180;48128;54.242;10.280;2023-07-09T08:02:06;101820.00;;;22.70
25514;BMP180;48128;54.242;10.280;2023-07-09T08:04:35;101848.00;;;23.00
25514;BMP180;48128;54.242;10.280;2023-07-09T08:07:02;101823.00;;;23.20
25514;BMP180;48128;54.242;10.280;2023-07-09T08:09:29;101821.00;;;23.40
25514;BMP180;48128;54.242;10.280;2023-07-09T08:11:56;101835.00;;;23.50
25514;BMP180;48128;54.242;10.280;2023-07-09T08:14:23;101833.00;;;23.70
25514;BMP180;48128;54.242;10.280;2023-07-09T08:16:50;101824.00;;;23.80
25514;BMP180;48128;54.242;10.280;2023-07-09T08:19:18;101826.00;;;23.90
25514;BMP180;48128;54.242;10.280;2023-07-09T08:21:46;101822.00;;;24.10
25514;BMP180;48128;54.242;10.280;2023-07-09T08:24:13;101826.00;;;24.20
25514;BMP180;48128;54.242;10.280;2023-07-09T08:26:41;101825.00;;;24.20
25514;BMP180;48128;54.242;10.280;2023-07-09T08:29:08;101826.00;;;24.30
25514;BMP180;48128;54.242;10.280;2023-07-09T08:31:35;101823.00;;;24.50
25514;BMP180;48128;54.242;10.280;2023-07-09T08:34:04;101819.00;;;24.50
25514;BMP180;48128;54.242;10.280;2023-07-09T08:36:31;101812.00;;;24.60
25514;BMP180;48128;54.242;10.280;2023-07-09T08:39:00;101814.00;;;24.60
25514;BMP180;48128;54.242;10.280;2023-07-09T08:41:39;101816.00;;;24.80
25514;BMP180;48128;54.242;10.280;2023-07-09T08:47:00;101811.00;;;25.20
25514;BMP180;48128;54.242;10.280;2023-07-09T08:49:49;101822.00;;;25.30
25514;BMP180;48128;54.242;10.280;2023-07-09T08:54:47;101815.00;;;25.30
25514;BMP180;48128;54.242;10.280;2023-07-09T08:57:30;101826.00;;;25.40
25514;BMP180;48128;54.242;10.280;2023-07-09T09:02:59;101801.00;;;25.60
25514;BMP180;48128;54.242;10.280;2023-07-09T09:05:27;101809.00;;;25.60
25514;BMP180;48128;54.242;10.280;2023-07-09T09:08:08;101814.00;;;25.70
25514;BMP180;48128;54.242;10.280;2023-07-09T09:10:52;101807.00;;;25.90
25514;BMP180;48128;54.242;10.280;2023-07-09T09:13:23;101807.00;;;26.00
25514;BMP180;48128;54.242;10.280;2023-07-09T09:15:52;101808.00;;;26.20
25514;BMP180;48128;54.242;10.280;2023-07-09T09:18:25;101806.00;;;26.30
25514;BMP180;48128;54.242;10.280;2023-07-09T09:21:26;101811.00;;;26.40
25514;BMP180;48128;54.242;10.280;2023-07-09T09:23:57;101816.00;;;26.50
25514;BMP180;48128;54.242;10.280;2023-07-09T09:26:32;101816.00;;;26.70
25514;BMP180;48128;54.242;10.280;2023-07-09T09:29:13;101798.00;;;26.70
25514;BMP180;48128;54.242;10.280;2023-07-09T09:31:45;101825.00;;;26.70
25514;BMP180;48128;54.242;10.280;2023-07-09T09:34:20;101827.00;;;27.00
25514;BMP180;48128;54.242;10.280;2023-07-09T09:36:51;101819.00;;;27.20
25514;BMP180;48128;54.242;10.280;2023-07-09T09:39:20;101812.00;;;27.20
25514;BMP180;48128;54.242;10.280;2023-07-09T09:41:47;101822.00;;;27.10
25514;BMP180;48128;54.242;10.280;2023-07-09T09:44:28;101822.00;;;27.20
25514;BMP180;48128;54.242;10.280;2023-07-09T09:46:58;101821.00;;;27.30
25514;BMP180;48128;54.242;10.280;2023-07-09T09:49:30;101809.00;;;27.40
25514;BMP180;48128;54.242;10.280;2023-07-09T09:52:30;101815.00;;;27.60
25514;BMP180;48128;54.242;10.280;2023-07-09T09:55:16;101824.00;;;27.80
25514;BMP180;48128;54.242;10.280;2023-07-09T09:57:49;101833.00;;;28.00
25514;BMP180;48128;54.242;10.280;2023-07-09T10:00:24;101829.00;;;28.10
25514;BMP180;48128;54.242;10.280;2023-07-09T10:05:58;101807.00;;;28.10
25514;BMP180;48128;54.242;10.280;2023-07-09T10:08:59;101808.00;;;28.20
25514;BMP180;48128;54.242;10.280;2023-07-09T10:11:53;101813.00;;;28.20
25514;BMP180;48128;54.242;10.280;2023-07-09T10:19:57;101801.00;;;28.50
25514;BMP180;48128;54.242;10.280;2023-07-09T10:22:37;101772.00;;;28.50
25514;BMP180;48128;54.242;10.280;2023-07-09T10:25:28;101803.00;;;28.60
25514;BMP180;48128;54.242;10.280;2023-07-09T10:28:06;101802.00;;;28.70
25514;BMP180;48128;54.242;10.280;2023-07-09T10:30:49;101800.00;;;28.90
25514;BMP180;48128;54.242;10.280;2023-07-09T10:33:36;101818.00;;;28.80
25514;BMP180;48128;54.242;10.280;2023-07-09T10:39:14;101810.00;;;28.60
25514;BMP180;48128;54.242;10.280;2023-07-09T10:41:42;101801.00;;;28.80
25514;BMP180;48128;54.242;10.280;2023-07-09T10:44:22;101792.00;;;29.20
25514;BMP180;48128;54.242;10.280;2023-07-09T10:46:54;101775.00;;;29.40
25514;BMP180;48128;54.242;10.280;2023-07-09T10:49:23;101795.00;;;29.20
25514;BMP180;48128;54.242;10.280;2023-07-09T10:52:40;101797.00;;;29.30
25514;BMP180;48128;54.242;10.280;2023-07-09T10:58:25;101777.00;;;29.60
25514;BMP180;48128;54.242;10.280;2023-07-09T11:00:54;101789.00;;;29.80
25514;BMP180;48128;54.242;10.280;2023-07-09T11:03:40;101756.00;;;29.70
25514;BMP180;48128;54.242;10.280;2023-07-09T11:06:32;101777.00;;;29.70
25514;BMP180;48128;54.242;10.280;2023-07-09T11:09:01;101783.00;;;29.70
25514;BMP180;48128;54.242;10.280;2023-07-09T11:11:40;101773.00;;;29.60
25514;BMP180;48128;54.242;10.280;2023-07-09T11:14:29;101790.00;;;29.70
25514;BMP180;48128;54.242;10.280;2023-07-09T11:16:57;101766.00;;;29.60
